Time;durP1;ratioP1;P1;durP2;ratioP2;P2;SDS_P1;SDS_P2;PMS_P1;PMS_P2;Temp;Humidity;BMP_temperature;BMP_pressure;BME280_temperature;BME280_humidity;BME280_pressure;Samples;Min_cycle;Max_cycle;Signal;HPM_P1;HPM_P2
2021/04/17 00:01:23;;;;;;;7.35;3.72;;;4.30;98.20;;;;;;5056442;28;20350;-53
2021/04/17 00:04:03;;;;;;;5.28;3.50;;;4.20;99.20;;;;;;5102630;27;20417;-51
2021/04/17 00:06:40;;;;;;;5.78;3.83;;;4.30;99.00;;;;;;5100627;27;20344;-51
2021/04/17 00:09:24;;;;;;;7.45;4.60;;;4.30;99.00;;;;;;5087803;27;20754;-55
2021/04/17 00:12:06;;;;;;;7.68;3.40;;;4.30;99.40;;;;;;5101021;27;20343;-51
2021/04/17 00:14:45;;;;;;;7.72;4.53;;;4.30;99.90;;;;;;5099723;27;20425;-52
2021/04/17 00:17:22;;;;;;;9.65;4.97;;;4.20;99.90;;;;;;5090819;27;20348;-51
2021/04/17 00:19:59;;;;;;;10.98;4.20;;;4.10;99.90;;;;;;5123025;27;20139;-47
2021/04/17 00:22:37;;;;;;;7.00;3.95;;;4.00;99.90;;;;;;5089516;27;20340;-47
2021/04/17 00:25:15;;;;;;;6.60;3.92;;;4.10;99.90;;;;;;5103215;27;20343;-51
2021/04/17 00:27:53;;;;;;;7.18;3.90;;;4.20;99.90;;;;;;5100558;27;20348;-51
2021/04/17 00:30:30;;;;;;;8.38;4.03;;;4.10;99.90;;;;;;5126001;27;20192;-50
2021/04/17 00:33:08;;;;;;;8.70;3.85;;;4.20;99.90;;;;;;5065300;28;20361;-47
2021/04/17 00:35:45;;;;;;;9.30;3.53;;;4.20;99.40;;;;;;5127758;27;20130;-49
2021/04/17 00:38:23;;;;;;;7.35;4.25;;;4.20;99.90;;;;;;5105348;27;20351;-51
2021/04/17 00:41:00;;;;;;;8.32;4.10;;;4.20;99.90;;;;;;5127448;27;20180;-50
2021/04/17 00:43:37;;;;;;;4.97;3.60;;;4.10;99.90;;;;;;5064794;28;20708;-51
2021/04/17 00:46:16;;;;;;;6.97;4.20;;;4.00;99.90;;;;;;5106309;27;20355;-50
2021/04/17 00:48:54;;;;;;;7.28;4.10;;;3.90;99.90;;;;;;5106414;27;20350;-49
2021/04/17 00:51:32;;;;;;;7.32;4.55;;;3.90;99.90;;;;;;5065296;28;20349;-49
2021/04/17 00:54:11;;;;;;;7.05;3.35;;;3.90;99.90;;;;;;5106932;27;20339;-52
2021/04/17 00:56:49;;;;;;;6.47;3.40;;;3.90;99.90;;;;;;5105571;27;20351;-52
2021/04/17 00:59:27;;;;;;;4.53;3.60;;;4.00;99.90;;;;;;5106983;27;20339;-53
2021/04/17 01:02:04;;;;;;;6.55;3.58;;;4.00;99.90;;;;;;5126429;27;20136;-48
2021/04/17 01:04:46;;;;;;;5.90;3.70;;;4.00;99.90;;;;;;5106290;27;20347;-52
2021/04/17 01:07:46;;;;;;;6.35;3.40;;;4.00;99.90;;;;;;5106619;27;20362;-50
2021/04/17 01:10:33;;;;;;;12.18;3.80;;;3.90;99.90;;;;;;5105972;27;20343;-46
2021/04/17 01:13:13;;;;;;;6.38;4.03;;;4.00;99.90;;;;;;5106011;27;20736;-48
2021/04/17 01:15:50;;;;;;;7.03;4.15;;;4.00;99.90;;;;;;5106776;27;20916;-48
2021/04/17 01:18:28;;;;;;;6.60;3.97;;;3.80;99.90;;;;;;5106403;27;20870;-49
2021/04/17 01:21:07;;;;;;;6.43;3.20;;;3.90;99.90;;;;;;5106997;27;20347;-49
2021/04/17 01:23:48;;;;;;;8.93;3.67;;;4.00;99.90;;;;;;5085483;27;20344;-49
2021/04/17 01:26:26;;;;;;;9.18;4.63;;;3.90;99.90;;;;;;5107078;27;20351;-50
2021/04/17 01:29:06;;;;;;;10.27;3.83;;;4.00;99.90;;;;;;5066132;28;20357;-50
2021/04/17 01:31:44;;;;;;;9.13;3.70;;;4.10;99.90;;;;;;5106016;27;20343;-52
2021/04/17 01:34:22;;;;;;;8.02;4.13;;;4.10;99.90;;;;;;5066174;28;20350;-49
2021/04/17 01:37:01;;;;;;;6.28;3.67;;;4.00;99.90;;;;;;5105952;27;20717;-50
2021/04/17 01:39:44;;;;;;;5.68;3.95;;;4.10;99.90;;;;;;5107569;27;20351;-54
2021/04/17 01:42:22;;;;;;;7.18;3.72;;;4.00;99.90;;;;;;5105665;27;20347;-51
2021/04/17 01:44:59;;;;;;;6.93;3.58;;;3.90;99.90;;;;;;5106003;27;20343;-53
2021/04/17 01:47:38;;;;;;;7.55;3.45;;;3.90;99.90;;;;;;5106888;27;20351;-47
2021/04/17 01:50:17;;;;;;;6.47;3.88;;;3.80;99.90;;;;;;5105740;27;20343;-49
2021/04/17 01:52:55;;;;;;;6.75;4.35;;;3.80;99.90;;;;;;5065988;28;20345;-49
2021/04/17 01:55:35;;;;;;;6.22;3.63;;;3.80;99.90;;;;;;5065539;28;20414;-49
2021/04/17 01:58:16;;;;;;;4.50;3.63;;;3.60;99.90;;;;;;5106842;27;20347;-49
2021/04/17 02:00:55;;;;;;;5.82;4.05;;;3.60;99.90;;;;;;5086502;27;20866;-52
2021/04/17 02:03:32;;;;;;;5.72;3.45;;;3.60;99.90;;;;;;5105453;27;20347;-52
2021/04/17 02:06:10;;;;;;;7.85;4.40;;;3.60;99.90;;;;;;5106518;27;20351;-51
2021/04/17 02:08:47;;;;;;;7.15;4.30;;;3.50;99.90;;;;;;5126171;27;20132;-53
2021/04/17 02:11:25;;;;;;;9.02;4.50;;;3.40;99.90;;;;;;5097133;27;20371;-50
2021/04/17 02:14:04;;;;;;;6.50;4.00;;;3.30;99.90;;;;;;5064523;28;20350;-49
2021/04/17 02:16:48;;;;;;;6.40;4.00;;;3.30;99.90;;;;;;5102606;27;20417;-49
2021/04/17 02:19:42;;;;;;;10.07;4.78;;;3.30;99.90;;;;;;5059186;28;20436;-51
2021/04/17 02:22:21;;;;;;;9.77;5.43;;;3.30;99.90;;;;;;5094074;27;20352;-49
2021/04/17 02:25:00;;;;;;;6.20;3.85;;;3.30;99.90;;;;;;5088224;27;20348;-47
2021/04/17 02:27:38;;;;;;;9.27;4.35;;;3.30;99.90;;;;;;5093084;27;20344;-50
2021/04/17 02:30:18;;;;;;;6.38;4.07;;;3.30;99.90;;;;;;5080619;28;20361;-49
2021/04/17 02:33:00;;;;;;;8.75;3.90;;;3.30;99.90;;;;;;5105618;27;20350;-49
2021/04/17 02:35:37;;;;;;;9.55;5.22;;;3.30;99.90;;;;;;5055693;28;20350;-47
2021/04/17 02:38:15;;;;;;;10.13;3.78;;;3.40;99.90;;;;;;5114085;27;20578;-49
2021/04/17 02:40:52;;;;;;;7.10;4.28;;;3.50;99.90;;;;;;5097171;27;20344;-51
2021/04/17 02:43:29;;;;;;;6.40;4.00;;;3.70;99.90;;;;;;5120945;27;20143;-54
2021/04/17 02:46:07;;;;;;;5.03;3.35;;;3.70;99.90;;;;;;5106570;27;20351;-47
2021/04/17 02:48:44;;;;;;;5.80;3.75;;;3.60;99.90;;;;;;5126321;27;20138;-51
2021/04/17 02:51:21;;;;;;;7.88;4.00;;;3.60;99.90;;;;;;5105174;27;20359;-49
2021/04/17 02:53:59;;;;;;;10.20;4.35;;;3.80;99.90;;;;;;5125494;27;20127;-48
2021/04/17 02:56:36;;;;;;;6.43;3.70;;;3.80;99.90;;;;;;5106596;27;20412;-47
2021/04/17 02:59:15;;;;;;;5.85;4.00;;;3.60;99.90;;;;;;5067045;28;20871;-48
2021/04/17 03:01:53;;;;;;;6.78;3.80;;;3.60;99.90;;;;;;5106092;27;20347;-49
2021/04/17 03:04:31;;;;;;;6.10;4.18;;;3.80;99.90;;;;;;5106255;27;20347;-49
2021/04/17 03:07:08;;;;;;;6.15;3.55;;;3.80;99.90;;;;;;5126151;27;20134;-52
2021/04/17 03:09:46;;;;;;;8.40;3.85;;;3.80;99.90;;;;;;5106412;27;20862;-50
2021/04/17 03:12:23;;;;;;;7.47;3.38;;;3.90;99.90;;;;;;5126447;27;20146;-51
2021/04/17 03:15:02;;;;;;;8.20;3.63;;;3.60;99.90;;;;;;5103438;27;20713;-53
2021/04/17 03:17:41;;;;;;;8.60;4.53;;;3.60;99.90;;;;;;5107291;27;20411;-48
2021/04/17 03:20:19;;;;;;;6.63;3.50;;;3.60;99.90;;;;;;5105544;27;20347;-51
2021/04/17 03:22:57;;;;;;;7.78;3.45;;;3.40;99.90;;;;;;5106807;27;20343;-49
2021/04/17 03:25:35;;;;;;;7.47;3.55;;;3.40;99.90;;;;;;5105033;27;20416;-51
2021/04/17 03:28:13;;;;;;;7.72;3.95;;;3.40;99.90;;;;;;5085438;28;20313;-48
2021/04/17 03:30:51;;;;;;;6.50;3.65;;;3.30;99.90;;;;;;5127571;27;20660;-48
2021/04/17 03:33:28;;;;;;;6.78;3.70;;;3.30;99.90;;;;;;5105670;27;20347;-50
2021/04/17 03:36:06;;;;;;;7.30;3.75;;;3.40;99.90;;;;;;5106758;27;20355;-49
2021/04/17 03:38:44;;;;;;;10.77;4.82;;;3.40;99.90;;;;;;5085335;27;20352;-53
2021/04/17 03:41:21;;;;;;;8.88;3.85;;;3.40;99.90;;;;;;5126806;27;20535;-49
2021/04/17 03:43:59;;;;;;;7.97;3.22;;;3.30;99.90;;;;;;5066408;28;20346;-51
2021/04/17 03:47:04;;;;;;;10.15;4.05;;;3.40;99.90;;;;;;5065254;28;20040;-48
2021/04/17 03:49:41;;;;;;;4.35;3.30;;;3.50;99.90;;;;;;5107209;27;20351;-48
2021/04/17 03:52:19;;;;;;;7.50;4.10;;;3.50;99.90;;;;;;5126232;27;20157;-50
2021/04/17 03:54:56;;;;;;;5.43;3.33;;;3.40;99.90;;;;;;5065138;28;20353;-53
2021/04/17 03:57:35;;;;;;;5.68;3.83;;;3.40;99.90;;;;;;5066279;28;20349;-48
2021/04/17 04:00:17;;;;;;;5.35;3.53;;;3.40;99.90;;;;;;5105772;27;20500;-51
2021/04/17 04:02:56;;;;;;;5.57;3.25;;;3.40;99.90;;;;;;5107195;27;20861;-47
2021/04/17 04:05:34;;;;;;;5.88;3.60;;;3.30;99.90;;;;;;5044782;28;20435;-47
2021/04/17 04:08:11;;;;;;;7.45;3.58;;;3.50;99.90;;;;;;5127146;27;20142;-51
2021/04/17 04:10:48;;;;;;;7.32;3.90;;;3.60;99.90;;;;;;5066006;28;20709;-47
2021/04/17 04:13:26;;;;;;;7.35;4.07;;;3.60;99.90;;;;;;5126289;27;20142;-48
2021/04/17 04:16:03;;;;;;;5.63;3.28;;;3.80;99.90;;;;;;5106818;27;20339;-49
2021/04/17 04:18:41;;;;;;;7.93;3.75;;;3.70;99.90;;;;;;5106572;27;20718;-49
2021/04/17 04:21:20;;;;;;;5.78;3.22;;;3.70;99.90;;;;;;5106637;27;20867;-53
2021/04/17 04:23:58;;;;;;;4.65;3.17;;;3.70;99.90;;;;;;5106859;27;20860;-46
2021/04/17 04:26:36;;;;;;;11.27;4.43;;;3.60;99.90;;;;;;5125624;27;20196;-51
2021/04/17 04:29:13;;;;;;;6.53;3.83;;;3.60;99.90;;;;;;5107399;27;20351;-49
2021/04/17 04:31:51;;;;;;;6.68;3.63;;;3.60;99.90;;;;;;5105535;27;20475;-49
2021/04/17 04:34:28;;;;;;;6.55;3.17;;;3.50;99.90;;;;;;5128140;27;20134;-47
2021/04/17 04:37:33;;;;;;;6.25;3.00;;;3.60;99.90;;;;;;5126404;28;20035;-49
2021/04/17 04:40:10;;;;;;;6.15;3.10;;;3.80;99.90;;;;;;5106479;27;20869;-53
2021/04/17 04:42:48;;;;;;;6.65;3.40;;;4.00;99.90;;;;;;5106800;27;20355;-49
2021/04/17 04:45:25;;;;;;;5.55;2.85;;;4.20;99.90;;;;;;5125858;27;20176;-49
2021/04/17 04:48:04;;;;;;;6.40;2.90;;;4.20;99.90;;;;;;5107178;27;20732;-50
2021/04/17 04:50:43;;;;;;;8.27;3.47;;;4.40;99.90;;;;;;5089764;27;20348;-47
2021/04/17 04:53:21;;;;;;;5.82;3.42;;;4.60;99.90;;;;;;5065293;28;20349;-49
2021/04/17 04:55:59;;;;;;;4.35;3.05;;;4.70;99.90;;;;;;5105028;27;20404;-50
2021/04/17 04:58:37;;;;;;;3.65;2.80;;;4.70;99.90;;;;;;5105765;27;20351;-52
2021/04/17 05:01:15;;;;;;;5.97;3.75;;;4.90;99.90;;;;;;5050408;28;20390;-49
2021/04/17 05:03:52;;;;;;;4.72;3.15;;;5.10;99.90;;;;;;5101924;27;20419;-47
2021/04/17 05:06:30;;;;;;;6.95;3.13;;;5.20;99.90;;;;;;5103875;27;20348;-50
2021/04/17 05:09:08;;;;;;;4.65;3.13;;;5.30;99.90;;;;;;5064559;28;20349;-49
2021/04/17 05:11:46;;;;;;;6.88;3.80;;;5.40;99.90;;;;;;5064414;28;20349;-48
2021/04/17 05:14:25;;;;;;;13.18;5.38;;;5.50;99.90;;;;;;5002790;28;20416;-49
2021/04/17 05:17:03;;;;;;;4.28;3.30;;;5.60;99.90;;;;;;5053568;28;20451;-48
2021/04/17 05:19:41;;;;;;;4.43;3.10;;;5.80;99.90;;;;;;5078852;27;20889;-50
2021/04/17 05:22:20;;;;;;;5.28;3.75;;;6.70;99.90;;;;;;5113672;27;20354;-48
2021/04/17 05:24:57;;;;;;;8.50;3.92;;;8.80;96.20;;;;;;5053240;28;20349;-48
2021/04/17 05:27:35;;;;;;;6.47;3.50;;;10.90;95.30;;;;;;5104645;27;20133;-47
2021/04/17 05:30:13;;;;;;;6.25;3.58;;;11.40;90.50;;;;;;5059297;28;21196;-48
2021/04/17 05:32:50;;;;;;;7.00;3.75;;;11.50;91.90;;;;;;5089986;27;20344;-49
2021/04/17 05:35:29;;;;;;;5.35;3.45;;;13.60;90.60;;;;;;5089983;27;20352;-48
2021/04/17 05:38:07;;;;;;;4.72;3.45;;;15.00;85.10;;;;;;5081342;28;20353;-52
2021/04/17 05:40:44;;;;;;;7.40;3.45;;;16.60;81.50;;;;;;5116346;27;20137;-51
2021/04/17 05:43:22;;;;;;;5.80;2.85;;;16.80;76.30;;;;;;5094806;27;20858;-51
2021/04/17 05:46:00;;;;;;;5.03;2.80;;;16.20;74.20;;;;;;5081374;27;20368;-48
2021/04/17 05:48:38;;;;;;;5.55;2.85;;;17.00;71.30;;;;;;4980304;27;20378;-53
2021/04/17 05:51:17;;;;;;;7.13;3.38;;;18.00;71.60;;;;;;5055505;28;20353;-49
2021/04/17 05:53:54;;;;;;;7.82;2.70;;;17.80;67.40;;;;;;5060015;28;20347;-49
2021/04/17 05:56:32;;;;;;;5.22;2.83;;;14.70;69.70;;;;;;5111110;27;20138;-51
2021/04/17 05:59:09;;;;;;;5.43;2.67;;;15.50;72.60;;;;;;5104084;27;20391;-50
2021/04/17 06:01:47;;;;;;;6.20;2.78;;;17.30;70.80;;;;;;5047436;28;20370;-47
2021/04/17 06:04:26;;;;;;;5.53;3.08;;;18.60;68.20;;;;;;5060816;28;20372;-48
2021/04/17 06:07:03;;;;;;;4.15;2.90;;;19.60;64.60;;;;;;5120528;27;20200;-50
2021/04/17 06:09:41;;;;;;;6.90;3.08;;;20.40;63.60;;;;;;5099236;27;20374;-51
2021/04/17 06:12:19;;;;;;;4.45;2.63;;;20.80;63.80;;;;;;5091944;27;20366;-54
2021/04/17 06:14:57;;;;;;;6.18;3.67;;;21.10;60.70;;;;;;5101020;27;20442;-51
2021/04/17 06:17:35;;;;;;;5.25;3.00;;;21.10;59.20;;;;;;5047339;28;20381;-51
2021/04/17 06:20:13;;;;;;;8.40;3.70;;;19.90;58.60;;;;;;5098343;27;20436;-49
2021/04/17 06:22:52;;;;;;;7.53;4.30;;;17.70;60.90;;;;;;5098580;27;20359;-50
2021/04/17 06:25:30;;;;;;;4.82;3.42;;;17.80;63.30;;;;;;5103895;27;20366;-53
2021/04/17 06:28:08;;;;;;;4.60;3.58;;;17.90;64.10;;;;;;5047190;28;20370;-50
2021/04/17 06:30:46;;;;;;;6.10;3.65;;;18.00;64.00;;;;;;5104643;27;20461;-56
2021/04/17 06:33:34;;;;;;;7.30;4.53;;;17.10;64.00;;;;;;5079876;27;21863;-48
2021/04/17 06:36:12;;;;;;;8.07;4.88;;;17.00;63.00;;;;;;5105483;27;20361;-52
2021/04/17 06:38:50;;;;;;;6.90;4.00;;;15.90;65.40;;;;;;5080061;27;20362;-48
2021/04/17 06:41:33;;;;;;;6.22;3.22;;;16.00;67.20;;;;;;5112524;27;20220;-47
2021/04/17 06:44:14;;;;;;;7.90;3.75;;;16.50;64.90;;;;;;5100976;27;20394;-52
2021/04/17 06:46:54;;;;;;;6.22;3.47;;;17.10;66.70;;;;;;5096864;27;20387;-54
2021/04/17 06:49:32;;;;;;;6.20;3.25;;;16.90;66.00;;;;;;5082568;27;20363;-49
2021/04/17 06:52:15;;;;;;;6.10;3.80;;;17.20;67.70;;;;;;5062249;27;20380;-51
2021/04/17 06:54:54;;;;;;;5.38;3.67;;;16.90;66.20;;;;;;5082113;27;20380;-51
2021/04/17 06:57:32;;;;;;;12.82;4.13;;;16.60;64.20;;;;;;5081949;27;20356;-50
2021/04/17 07:00:14;;;;;;;5.60;3.90;;;16.60;65.80;;;;;;5100182;27;20361;-48
2021/04/17 07:02:52;;;;;;;7.25;4.45;;;17.10;66.70;;;;;;5042649;28;20373;-47
2021/04/17 07:05:29;;;;;;;8.55;4.20;;;17.40;66.70;;;;;;5094344;27;20429;-51
2021/04/17 07:08:07;;;;;;;8.82;4.32;;;17.70;66.80;;;;;;5096423;27;20387;-52
2021/04/17 07:10:46;;;;;;;8.70;4.13;;;18.00;66.90;;;;;;5103315;27;20358;-49
2021/04/17 07:13:25;;;;;;;7.03;3.58;;;18.50;66.50;;;;;;5097070;27;20883;-50
2021/04/17 07:16:10;;;;;;;5.53;3.30;;;19.00;66.80;;;;;;5092349;27;20901;-53
2021/04/17 07:18:52;;;;;;;5.53;3.55;;;18.70;67.10;;;;;;5089782;27;20393;-52
2021/04/17 07:21:30;;;;;;;5.72;3.72;;;19.20;67.30;;;;;;5062400;28;20407;-53
2021/04/17 07:24:10;;;;;;;5.78;3.40;;;19.00;67.70;;;;;;5081546;27;20356;-55
2021/04/17 07:26:47;;;;;;;5.55;3.05;;;18.70;68.10;;;;;;5036425;28;20805;-53
2021/04/17 07:29:26;;;;;;;5.32;2.83;;;18.40;69.40;;;;;;5098550;27;20721;-54
2021/04/17 07:32:05;;;;;;;5.28;3.55;;;18.10;70.20;;;;;;5100488;27;20393;-51
2021/04/17 07:34:46;;;;;;;6.22;3.05;;;17.80;71.30;;;;;;5086718;27;20372;-55
2021/04/17 07:37:23;;;;;;;3.90;2.75;;;17.90;71.10;;;;;;5101709;27;20719;-55
2021/04/17 07:40:19;;;;;;;6.90;3.05;;;17.90;70.40;;;;;;5096929;27;20352;-50
2021/04/17 07:42:58;;;;;;;5.18;2.78;;;17.10;72.00;;;;;;5087773;27;20365;-51
2021/04/17 07:45:40;;;;;;;4.70;2.90;;;17.30;73.90;;;;;;5079624;27;20367;-53
2021/04/17 07:48:25;;;;;;;4.35;3.35;;;18.40;71.60;;;;;;4988630;28;20910;-54
2021/04/17 07:51:07;;;;;;;6.03;3.05;;;19.30;70.20;;;;;;5084500;27;20425;-49
2021/04/17 07:53:44;;;;;;;6.63;3.65;;;20.40;69.10;;;;;;5079085;27;20367;-55
2021/04/17 07:56:28;;;;;;;7.40;3.80;;;20.70;63.60;;;;;;5006597;28;20370;-50
2021/04/17 07:59:32;;;;;;;6.22;3.67;;;20.70;63.50;;;;;;5023060;27;20042;-53
2021/04/17 08:02:12;;;;;;;5.82;3.70;;;21.90;61.90;;;;;;5090588;27;20405;-52
2021/04/17 08:05:17;;;;;;;6.88;3.05;;;22.60;58.10;;;;;;5085210;28;20048;-49
2021/04/17 08:08:21;;;;;;;5.30;3.90;;;23.90;56.70;;;;;;5083941;28;20036;-51
2021/04/17 08:11:29;;;;;;;4.90;3.33;;;24.20;55.60;;;;;;5083921;28;20048;-50
2021/04/17 08:14:53;;;;;;;4.70;3.55;;;18.00;61.80;;;;;;5072481;28;20040;-49
2021/04/17 08:17:58;;;;;;;6.97;4.00;;;18.30;63.00;;;;;;5080392;28;20032;-52
2021/04/17 08:21:07;;;;;;;8.27;3.80;;;20.60;61.20;;;;;;5078327;28;20040;-48
2021/04/17 08:24:13;;;;;;;5.85;3.70;;;22.90;57.70;;;;;;5083526;28;20032;-48
2021/04/17 08:27:18;;;;;;;6.13;3.30;;;23.90;55.70;;;;;;5082483;28;20044;-49
2021/04/17 08:30:25;;;;;;;6.25;3.17;;;24.40;54.50;;;;;;5085759;28;20050;-54
2021/04/17 08:33:29;;;;;;;6.40;3.67;;;25.70;51.70;;;;;;5080842;28;20051;-54
2021/04/17 08:36:36;;;;;;;4.13;3.40;;;25.10;51.10;;;;;;5071711;28;20036;-52
2021/04/17 08:39:44;;;;;;;5.65;3.38;;;24.10;50.80;;;;;;5083979;28;20028;-55
2021/04/17 08:42:49;;;;;;;6.50;3.75;;;23.00;49.50;;;;;;5083290;28;20515;-49
2021/04/17 08:46:13;;;;;;;5.25;3.05;;;22.20;53.20;;;;;;5082851;28;20044;-49
2021/04/17 08:49:30;;;;;;;8.15;4.03;;;22.80;52.80;;;;;;5084131;28;20032;-54
2021/04/17 08:56:52;;;;;;;4.85;3.20;;;22.90;52.00;;;;;;5098922;27;20451;-53
2021/04/17 08:59:58;;;;;;;6.68;3.90;;;23.80;52.40;;;;;;5099939;28;20070;-51
2021/04/17 09:03:02;;;;;;;6.25;3.60;;;23.60;48.90;;;;;;5105352;28;20035;-50
2021/04/17 09:06:29;;;;;;;6.15;3.63;;;23.80;50.80;;;;;;5104891;28;20032;-50
2021/04/17 09:09:33;;;;;;;7.78;4.05;;;24.10;49.90;;;;;;5103570;28;20027;-53
2021/04/17 09:12:37;;;;;;;6.38;4.07;;;23.40;49.30;;;;;;5104513;28;20032;-49
2021/04/17 09:16:03;;;;;;;7.00;3.85;;;24.10;49.40;;;;;;5105253;28;20048;-54
2021/04/17 09:19:07;;;;;;;5.18;4.03;;;24.20;48.00;;;;;;5105435;28;20035;-52
2021/04/17 09:22:27;;;;;;;5.75;2.97;;;24.30;49.20;;;;;;5105705;28;20036;-52
2021/04/17 09:25:36;;;;;;;5.70;3.00;;;24.50;50.80;;;;;;5104255;28;20039;-49
2021/04/17 09:28:40;;;;;;;8.48;3.40;;;25.10;48.90;;;;;;5105806;28;20502;-50
2021/04/17 09:31:46;;;;;;;3.92;3.05;;;24.90;47.00;;;;;;5104167;28;20395;-49
2021/04/17 09:34:51;;;;;;;6.25;3.58;;;23.90;48.20;;;;;;5104460;28;20511;-50
2021/04/17 09:38:11;;;;;;;5.28;3.45;;;24.20;47.80;;;;;;5085666;28;20036;-56
2021/04/17 09:41:15;;;;;;;4.03;3.35;;;23.80;46.60;;;;;;5086063;28;20036;-50
2021/04/17 09:44:20;;;;;;;8.68;2.90;;;24.20;47.60;;;;;;5104333;28;20040;-50
2021/04/17 09:47:25;;;;;;;5.05;3.72;;;25.50;47.50;;;;;;5105154;28;20028;-49
2021/04/17 09:50:31;;;;;;;7.35;3.25;;;26.70;46.30;;;;;;5102783;28;20036;-54
2021/04/17 09:53:37;;;;;;;6.07;4.15;;;26.50;45.00;;;;;;5103712;28;20036;-54
2021/04/17 09:56:42;;;;;;;7.38;4.13;;;26.80;45.20;;;;;;5104231;28;20048;-50
2021/04/17 10:00:00;;;;;;;5.35;3.63;;;26.20;45.70;;;;;;5103780;28;20039;-49
2021/04/17 10:03:04;;;;;;;5.43;3.10;;;28.40;45.20;;;;;;5102817;28;20039;-51
2021/04/17 10:06:37;;;;;;;6.90;3.75;;;28.20;43.30;;;;;;5098142;28;20036;-50
2021/04/17 10:09:41;;;;;;;5.68;4.45;;;26.70;43.40;;;;;;5089214;28;20044;-49
2021/04/17 10:12:51;;;;;;;3.47;2.88;;;25.50;44.30;;;;;;5090278;28;20548;-49
2021/04/17 10:15:55;;;;;;;4.22;3.40;;;26.10;44.10;;;;;;5082215;28;20611;-49
2021/04/17 10:19:02;;;;;;;4.43;3.13;;;25.20;44.00;;;;;;5091270;28;20036;-50
2021/04/17 10:22:07;;;;;;;4.95;3.13;;;24.60;46.00;;;;;;5086202;28;20029;-54
2021/04/17 10:25:41;;;;;;;5.63;3.00;;;25.30;45.50;;;;;;5088467;28;20040;-53
2021/04/17 10:28:53;;;;;;;5.07;3.33;;;24.70;44.00;;;;;;5089741;28;20036;-50
2021/04/17 10:32:05;;;;;;;5.15;3.30;;;23.90;45.20;;;;;;5090434;28;20048;-50
2021/04/17 10:35:12;;;;;;;6.32;3.28;;;23.60;45.10;;;;;;5090618;28;20028;-49
2021/04/17 10:38:29;;;;;;;6.13;3.55;;;22.20;47.00;;;;;;5089056;28;20479;-49
2021/04/17 10:41:35;;;;;;;6.05;3.63;;;21.10;48.20;;;;;;5089982;28;20040;-51
2021/04/17 10:44:51;;;;;;;4.18;3.05;;;23.50;47.40;;;;;;5091715;28;20044;-49
2021/04/17 10:48:09;;;;;;;6.53;3.30;;;25.00;45.10;;;;;;5089924;28;20040;-52
2021/04/17 10:51:16;;;;;;;4.93;3.42;;;24.40;44.70;;;;;;5086979;28;20039;-48
2021/04/17 10:54:22;;;;;;;6.20;3.80;;;23.10;45.50;;;;;;5081920;28;20032;-53
2021/04/17 10:57:27;;;;;;;10.38;3.70;;;22.60;46.70;;;;;;5090090;28;20036;-56
2021/04/17 11:00:33;;;;;;;6.50;3.22;;;23.50;45.80;;;;;;5090135;28;20039;-53
2021/04/17 11:03:49;;;;;;;5.82;3.40;;;26.90;44.20;;;;;;5091033;28;20036;-49
2021/04/17 11:06:53;;;;;;;3.63;2.80;;;27.80;43.20;;;;;;5069443;28;20440;-53
2021/04/17 11:09:58;;;;;;;4.05;2.58;;;28.50;42.60;;;;;;5082457;28;20494;-55
2021/04/17 11:13:06;;;;;;;4.72;2.53;;;29.60;42.10;;;;;;5089042;28;20035;-50
2021/04/17 11:16:13;;;;;;;6.43;2.72;;;29.80;41.40;;;;;;5090086;28;20408;-50
2021/04/17 11:19:32;;;;;;;3.17;2.45;;;30.00;40.90;;;;;;5069804;28;20033;-53
2021/04/17 11:22:36;;;;;;;4.13;2.88;;;31.40;40.20;;;;;;5089198;28;20040;-46
2021/04/17 11:25:40;;;;;;;4.40;2.90;;;29.60;39.00;;;;;;5073062;28;20048;-49
2021/04/17 11:28:51;;;;;;;4.07;3.00;;;26.60;40.10;;;;;;5085969;28;20036;-54
2021/04/17 11:31:55;;;;;;;5.63;2.70;;;23.30;42.90;;;;;;5090691;28;20040;-51
2021/04/17 11:34:59;;;;;;;6.22;3.50;;;24.50;44.40;;;;;;5089840;28;20040;-49
2021/04/17 11:38:03;;;;;;;4.18;3.10;;;25.40;41.30;;;;;;5089370;28;20513;-52
2021/04/17 11:41:08;;;;;;;5.22;3.13;;;26.40;41.50;;;;;;5090753;28;20044;-51
2021/04/17 11:44:12;;;;;;;4.85;3.15;;;26.60;41.60;;;;;;5091155;28;20040;-49
2021/04/17 11:47:17;;;;;;;6.70;2.92;;;26.50;42.10;;;;;;5070443;28;20044;-52
2021/04/17 11:50:21;;;;;;;7.10;3.03;;;27.90;40.40;;;;;;5070877;28;20052;-47
2021/04/17 11:53:25;;;;;;;5.18;3.10;;;29.40;40.00;;;;;;5070541;28;20040;-49
2021/04/17 11:56:29;;;;;;;7.18;3.42;;;30.50;39.60;;;;;;5069992;28;20056;-47
2021/04/17 11:59:33;;;;;;;4.88;3.13;;;29.10;40.30;;;;;;5070828;28;20044;-49
2021/04/17 12:02:37;;;;;;;5.55;3.15;;;28.00;39.90;;;;;;5080752;28;20043;-50
2021/04/17 12:05:42;;;;;;;4.72;3.42;;;27.10;40.90;;;;;;5086228;28;20051;-49
2021/04/17 12:08:46;;;;;;;5.55;2.85;;;27.20;39.90;;;;;;5088508;28;20505;-49
2021/04/17 12:11:51;;;;;;;7.82;3.83;;;27.10;39.90;;;;;;5086273;28;20055;-49
2021/04/17 12:14:55;;;;;;;7.22;3.25;;;24.10;41.00;;;;;;5085864;28;20040;-50
2021/04/17 12:18:00;;;;;;;11.27;4.18;;;24.00;43.10;;;;;;5084705;28;20044;-51
2021/04/17 12:21:04;;;;;;;4.20;3.25;;;25.40;41.70;;;;;;5079840;28;20051;-50
2021/04/17 12:24:09;;;;;;;5.60;3.08;;;26.20;40.70;;;;;;5083854;28;20054;-49
2021/04/17 12:27:13;;;;;;;7.00;3.17;;;27.20;41.30;;;;;;5081452;28;20063;-49
2021/04/17 12:30:18;;;;;;;4.53;2.97;;;28.10;40.70;;;;;;5079354;28;20031;-53
2021/04/17 12:33:23;;;;;;;4.43;3.22;;;28.50;39.60;;;;;;5081128;28;20036;-53
2021/04/17 12:36:27;;;;;;;5.22;2.63;;;28.20;38.90;;;;;;5079094;28;20055;-54
2021/04/17 12:39:33;;;;;;;3.75;3.03;;;27.50;41.70;;;;;;5086288;28;20410;-51
2021/04/17 12:42:37;;;;;;;7.82;3.20;;;27.20;40.70;;;;;;5082031;28;20043;-51
2021/04/17 12:45:41;;;;;;;5.35;3.72;;;26.50;40.60;;;;;;5086699;28;20041;-50
2021/04/17 12:48:46;;;;;;;6.72;3.70;;;27.70;40.20;;;;;;5086540;28;20040;-54
2021/04/17 12:51:50;;;;;;;5.10;3.33;;;26.70;40.70;;;;;;5074013;28;20059;-49
2021/04/17 12:54:53;;;;;;;5.07;3.22;;;25.20;40.90;;;;;;5076541;28;20071;-49
2021/04/17 12:57:57;;;;;;;6.90;3.42;;;25.50;41.80;;;;;;5087025;28;20422;-50
2021/04/17 13:01:01;;;;;;;4.57;3.10;;;27.70;40.10;;;;;;5072515;28;20049;-50
2021/04/17 13:04:06;;;;;;;5.93;3.30;;;29.30;40.40;;;;;;5086066;28;20032;-54
2021/04/17 13:07:10;;;;;;;8.32;3.15;;;28.80;40.00;;;;;;5088763;28;20115;-52
2021/04/17 13:10:15;;;;;;;4.85;3.45;;;27.30;40.80;;;;;;5087629;28;20059;-53
2021/04/17 13:13:20;;;;;;;4.95;3.20;;;25.30;42.00;;;;;;5069871;28;20442;-50
2021/04/17 13:16:25;;;;;;;6.15;3.65;;;25.30;41.60;;;;;;5071141;28;20054;-49
2021/04/17 13:19:29;;;;;;;6.80;3.60;;;24.80;41.10;;;;;;5081998;28;20044;-54
2021/04/17 13:22:35;;;;;;;4.82;3.47;;;24.80;41.50;;;;;;5082929;28;20040;-49
2021/04/17 13:25:39;;;;;;;4.03;3.40;;;24.70;42.60;;;;;;5083795;28;20071;-49
2021/04/17 13:28:47;;;;;;;7.25;4.00;;;24.40;42.80;;;;;;5085935;28;20410;-49
2021/04/17 13:31:51;;;;;;;4.35;3.50;;;24.50;40.90;;;;;;5081570;28;20050;-51
2021/04/17 13:34:56;;;;;;;8.50;3.53;;;24.70;43.00;;;;;;5084332;28;20047;-54
2021/04/17 13:38:00;;;;;;;5.30;3.30;;;25.20;42.40;;;;;;5085742;28;20039;-50
2021/04/17 13:41:04;;;;;;;3.65;3.35;;;26.00;42.30;;;;;;5079339;28;20043;-51
2021/04/17 13:44:11;;;;;;;5.47;3.58;;;25.50;42.70;;;;;;5079145;28;20410;-54
2021/04/17 13:47:16;;;;;;;7.60;4.10;;;25.10;42.00;;;;;;5089960;28;20043;-51
2021/04/17 13:50:21;;;;;;;4.50;3.53;;;23.20;44.40;;;;;;5082449;28;20422;-55
2021/04/17 13:53:25;;;;;;;6.45;3.90;;;22.70;44.10;;;;;;5082245;28;20047;-52
2021/04/17 13:56:30;;;;;;;4.85;3.65;;;22.20;45.40;;;;;;5086696;28;20052;-54
2021/04/17 13:59:34;;;;;;;7.22;3.95;;;20.80;47.00;;;;;;5082324;28;20036;-49
2021/04/17 14:02:38;;;;;;;5.43;3.80;;;20.70;46.00;;;;;;5084034;28;20028;-50
2021/04/17 14:05:43;;;;;;;7.47;4.25;;;20.50;47.80;;;;;;5082246;28;20047;-56
2021/04/17 14:08:48;;;;;;;9.32;4.15;;;21.60;47.40;;;;;;5087735;28;20039;-52
2021/04/17 14:11:52;;;;;;;8.57;4.90;;;22.30;47.40;;;;;;5082348;28;20067;-51
2021/04/17 14:14:56;;;;;;;7.32;4.93;;;22.40;47.60;;;;;;5083120;28;20044;-53
2021/04/17 14:17:59;;;;;;;13.20;4.80;;;22.50;47.30;;;;;;5080381;28;20040;-51
2021/04/17 14:21:06;;;;;;;5.85;4.03;;;22.00;47.60;;;;;;5077721;28;20039;-53
2021/04/17 14:24:11;;;;;;;21.35;4.72;;;21.40;47.20;;;;;;5083635;28;20073;-50
2021/04/17 14:27:14;;;;;;;11.77;4.80;;;21.90;47.80;;;;;;5085661;28;20525;-51
2021/04/17 14:30:19;;;;;;;8.52;4.45;;;21.60;49.40;;;;;;5083874;28;20039;-49
2021/04/17 14:33:23;;;;;;;6.47;5.00;;;21.10;49.90;;;;;;5082939;28;20538;-53
2021/04/17 14:36:27;;;;;;;8.27;4.95;;;20.40;50.70;;;;;;5083351;28;20502;-52
2021/04/17 14:39:31;;;;;;;10.23;4.40;;;20.50;52.10;;;;;;5086832;28;20051;-53
2021/04/17 14:42:36;;;;;;;7.20;4.75;;;20.30;50.80;;;;;;5087067;28;20032;-55
2021/04/17 14:45:40;;;;;;;7.68;4.10;;;20.50;51.40;;;;;;5081218;28;20044;-51
2021/04/17 14:48:46;;;;;;;5.82;4.50;;;20.60;51.00;;;;;;5082483;28;20541;-49
2021/04/17 14:51:51;;;;;;;7.40;4.65;;;20.50;50.00;;;;;;5070659;28;20035;-50
2021/04/17 14:54:57;;;;;;;6.90;4.45;;;19.90;50.70;;;;;;5088414;28;20039;-54
2021/04/17 14:58:04;;;;;;;7.07;4.95;;;19.30;50.70;;;;;;5081603;28;20039;-51